Time;durP1;ratioP1;P1;durP2;ratioP2;P2;SDS_P1;SDS_P2;PMS_P1;PMS_P2;Temp;Humidity;BMP_temperature;BMP_pressure;BME280_temperature;BME280_humidity;BME280_pressure;Samples;Min_cycle;Max_cycle;Signal;HPM_P1;HPM_P2
2022/08/13 00:01:25;;;;;;;1.57;0.63;;;18.40;37.70;;;;;;4993948;28;20412;-86
2022/08/13 00:03:55;;;;;;;1.13;0.57;;;18.30;79.80;;;;;;4984450;28;20473;-86
2022/08/13 00:09:12;;;;;;;1.37;0.67;;;18.10;99.80;;;;;;4983847;28;20419;-86
2022/08/13 00:14:31;;;;;;;1.70;0.77;;;18.10;99.90;;;;;;4994076;28;20462;-86
2022/08/13 00:16:57;;;;;;;1.57;0.60;;;18.10;99.90;;;;;;4993440;28;20466;-86
2022/08/13 00:19:26;;;;;;;2.77;1.10;;;18.00;99.90;;;;;;4992268;28;20428;-86
2022/08/13 00:21:52;;;;;;;2.77;1.03;;;17.90;99.90;;;;;;4993386;28;20435;-90
2022/08/13 00:24:18;;;;;;;2.07;0.67;;;17.90;99.90;;;;;;4992228;28;21006;-87
2022/08/13 00:26:44;;;;;;;2.33;1.70;;;17.80;99.90;;;;;;4992917;28;20421;-87
2022/08/13 00:29:09;;;;;;;1.53;0.80;;;17.90;99.90;;;;;;4993184;28;20432;-87
2022/08/13 00:31:37;;;;;;;2.80;1.13;;;17.90;99.90;;;;;;4993220;28;20177;-87
2022/08/13 00:34:03;;;;;;;3.43;0.77;;;17.90;99.90;;;;;;4993147;28;20278;-87
2022/08/13 00:36:34;;;;;;;2.60;1.03;;;17.80;99.90;;;;;;4991909;28;20425;-86
2022/08/13 00:39:00;;;;;;;2.20;0.70;;;17.80;99.90;;;;;;4992350;28;20210;-86
2022/08/13 00:41:38;;;;;;;2.10;0.80;;;17.80;99.90;;;;;;4996472;28;20467;-86
2022/08/13 00:44:09;;;;;;;1.30;0.70;;;17.80;99.90;;;;;;4995676;28;20433;-88
2022/08/13 00:46:36;;;;;;;1.77;1.00;;;17.80;99.90;;;;;;4995558;28;20423;-86
2022/08/13 00:49:03;;;;;;;2.50;0.90;;;17.80;99.90;;;;;;4995479;28;20424;-88
2022/08/13 00:51:30;;;;;;;1.40;0.80;;;17.80;99.90;;;;;;4997123;28;20416;-87
2022/08/13 00:53:58;;;;;;;1.70;1.13;;;17.70;99.90;;;;;;4997377;28;20841;-87
2022/08/13 00:56:25;;;;;;;2.63;0.80;;;17.70;99.90;;;;;;4997796;28;20525;-87
2022/08/13 00:58:52;;;;;;;2.60;1.03;;;17.70;99.90;;;;;;4994575;28;21005;-92
2022/08/13 01:01:24;;;;;;;1.20;0.50;;;17.60;99.90;;;;;;4983084;28;20480;-85
2022/08/13 01:03:49;;;;;;;2.10;0.50;;;17.50;99.90;;;;;;4996319;28;20438;-89
2022/08/13 01:06:15;;;;;;;1.30;0.50;;;17.40;99.90;;;;;;4996359;28;20463;-87
2022/08/13 01:08:41;;;;;;;1.33;0.73;;;17.30;99.90;;;;;;4996491;28;20487;-86
2022/08/13 01:11:11;;;;;;;1.53;0.63;;;17.20;99.90;;;;;;4996159;28;20257;-87
2022/08/13 01:13:39;;;;;;;2.50;0.97;;;17.30;99.90;;;;;;4995164;28;20190;-88
2022/08/13 01:16:13;;;;;;;2.40;0.60;;;17.30;99.90;;;;;;4996440;28;20437;-90
2022/08/13 01:18:45;;;;;;;1.43;0.80;;;17.30;99.90;;;;;;4996268;28;20472;-86
2022/08/13 01:21:20;;;;;;;1.20;0.60;;;17.30;99.90;;;;;;4995164;28;20807;-87
2022/08/13 01:23:50;;;;;;;1.60;1.00;;;17.30;99.90;;;;;;4994938;28;20515;-87
2022/08/13 01:26:18;;;;;;;1.83;0.77;;;17.30;99.90;;;;;;4994690;28;20843;-87
2022/08/13 01:28:45;;;;;;;1.27;0.93;;;17.30;99.90;;;;;;4995971;28;20461;-86
2022/08/13 01:31:14;;;;;;;1.70;0.90;;;17.30;99.90;;;;;;4996026;28;20786;-86
2022/08/13 01:33:41;;;;;;;3.60;0.70;;;17.20;99.90;;;;;;4996024;28;20878;-88
2022/08/13 01:36:07;;;;;;;1.50;0.70;;;17.20;99.90;;;;;;4995968;28;20477;-88
2022/08/13 01:38:36;;;;;;;2.43;0.93;;;17.20;99.90;;;;;;4995776;28;20478;-86
2022/08/13 01:41:04;;;;;;;1.70;1.00;;;17.20;99.90;;;;;;4995476;28;20423;-89
2022/08/13 01:43:30;;;;;;;2.40;1.13;;;17.10;99.90;;;;;;5002361;28;20433;-86
2022/08/13 01:46:00;;;;;;;2.40;0.70;;;17.00;99.90;;;;;;5010860;28;20747;-87
2022/08/13 01:51:21;;;;;;;1.73;0.57;;;16.90;99.90;;;;;;5010397;28;20441;-88
2022/08/13 01:54:09;;;;;;;1.13;0.30;;;16.80;99.90;;;;;;5001132;28;20497;-86
2022/08/13 01:56:35;;;;;;;3.17;1.07;;;16.80;99.90;;;;;;4997827;28;20470;-85
2022/08/13 01:59:03;;;;;;;1.63;0.50;;;16.80;99.90;;;;;;4996351;28;20544;-86
2022/08/13 02:01:30;;;;;;;2.27;0.80;;;16.70;99.90;;;;;;4996007;28;20178;-89
2022/08/13 02:03:57;;;;;;;2.13;0.90;;;16.70;99.90;;;;;;4987415;28;20440;-88
2022/08/13 02:06:25;;;;;;;2.67;0.80;;;16.60;99.90;;;;;;4995311;28;20975;-85
2022/08/13 02:08:56;;;;;;;1.50;0.40;;;16.60;99.90;;;;;;4995206;28;20456;-86
2022/08/13 02:11:22;;;;;;;2.63;1.00;;;16.50;99.90;;;;;;4975305;28;20407;-86
2022/08/13 02:13:50;;;;;;;2.33;0.90;;;16.50;99.90;;;;;;4998007;28;20440;-85
2022/08/13 02:16:16;;;;;;;1.53;0.80;;;16.50;99.90;;;;;;4995765;28;20204;-90
2022/08/13 02:18:41;;;;;;;2.17;1.30;;;16.50;99.90;;;;;;4996715;28;20919;-86
2022/08/13 02:21:07;;;;;;;1.47;0.50;;;16.40;99.90;;;;;;4997939;28;20171;-86
2022/08/13 02:23:33;;;;;;;2.50;1.10;;;16.30;99.90;;;;;;4998160;28;20273;-86
2022/08/13 02:26:00;;;;;;;8.43;1.07;;;16.40;99.90;;;;;;4995825;28;20198;-86
2022/08/13 02:28:28;;;;;;;2.47;0.87;;;16.40;99.90;;;;;;4995481;28;20841;-91
2022/08/13 02:30:56;;;;;;;4.40;1.03;;;16.40;99.90;;;;;;4995324;28;20497;-86
2022/08/13 02:33:22;;;;;;;3.27;1.07;;;16.30;99.90;;;;;;4995207;28;20428;-90
2022/08/13 02:35:48;;;;;;;2.40;1.67;;;16.20;99.90;;;;;;4994922;28;20504;-86
2022/08/13 02:38:15;;;;;;;1.77;0.97;;;16.20;99.90;;;;;;4994732;28;20570;-86
2022/08/13 02:43:26;;;;;;;1.20;0.60;;;16.20;99.90;;;;;;4995082;28;20401;-87
2022/08/13 02:45:53;;;;;;;1.33;0.73;;;16.20;99.90;;;;;;4996316;28;20404;-86
2022/08/13 02:48:23;;;;;;;1.77;0.73;;;16.10;99.90;;;;;;4996492;28;20208;-85
2022/08/13 02:50:49;;;;;;;1.40;0.73;;;16.10;99.90;;;;;;4995278;28;20425;-88
2022/08/13 02:53:14;;;;;;;1.10;0.53;;;16.00;99.90;;;;;;4996240;28;20774;-88
2022/08/13 02:55:41;;;;;;;1.20;0.50;;;16.10;99.90;;;;;;4994379;28;20189;-85
2022/08/13 02:58:08;;;;;;;1.67;0.87;;;16.10;99.90;;;;;;4996176;28;20208;-86
2022/08/13 03:00:34;;;;;;;2.53;0.83;;;16.00;99.90;;;;;;4995623;28;20475;-90
2022/08/13 03:03:00;;;;;;;1.30;0.73;;;16.00;99.90;;;;;;4996291;28;20421;-85
2022/08/13 03:05:30;;;;;;;1.43;0.97;;;15.90;99.90;;;;;;4997398;28;20439;-86
2022/08/13 03:07:57;;;;;;;2.63;1.20;;;15.80;99.90;;;;;;4996223;28;20405;-85
2022/08/13 03:10:26;;;;;;;2.97;0.60;;;15.90;99.90;;;;;;4996327;28;20448;-85
2022/08/13 03:12:58;;;;;;;1.10;1.00;;;15.90;99.90;;;;;;4996921;28;20470;-89
2022/08/13 03:15:25;;;;;;;1.57;0.73;;;15.90;99.90;;;;;;4994329;28;20411;-91
2022/08/13 03:17:50;;;;;;;1.30;0.93;;;15.90;99.90;;;;;;4992760;28;20496;-86
2022/08/13 03:20:16;;;;;;;2.10;0.50;;;15.90;99.90;;;;;;4995189;28;20423;-86
2022/08/13 03:22:57;;;;;;;1.73;0.77;;;15.90;99.90;;;;;;4995599;28;20173;-86
2022/08/13 03:25:25;;;;;;;1.33;0.73;;;15.90;99.90;;;;;;4995140;28;20197;-86
2022/08/13 03:27:54;;;;;;;1.47;0.60;;;15.80;99.90;;;;;;4999604;28;20405;-86
2022/08/13 03:30:22;;;;;;;1.30;0.63;;;15.70;99.90;;;;;;4994920;28;20819;-88
2022/08/13 03:32:50;;;;;;;1.13;0.73;;;15.70;99.90;;;;;;4992789;28;20419;-87
2022/08/13 03:35:18;;;;;;;1.43;0.60;;;15.70;99.90;;;;;;4992794;28;20505;-88
2022/08/13 03:37:47;;;;;;;1.67;0.83;;;15.70;99.90;;;;;;4992631;28;20563;-88
2022/08/13 03:40:15;;;;;;;2.40;0.60;;;15.70;99.90;;;;;;4992337;28;20505;-87
2022/08/13 03:42:41;;;;;;;2.07;0.60;;;15.60;99.90;;;;;;4993912;28;20477;-92
2022/08/13 03:45:08;;;;;;;1.80;1.20;;;15.60;99.90;;;;;;4992507;28;20454;-88
2022/08/13 03:47:34;;;;;;;2.47;0.70;;;15.60;99.90;;;;;;4992381;28;20447;-87
2022/08/13 03:50:04;;;;;;;1.43;0.77;;;15.60;99.90;;;;;;4993591;28;20406;-87
2022/08/13 03:52:30;;;;;;;2.03;0.80;;;15.50;99.90;;;;;;4992393;28;20178;-87
2022/08/13 03:54:56;;;;;;;2.00;0.80;;;15.50;99.90;;;;;;4996438;28;20942;-92
2022/08/13 03:57:22;;;;;;;1.43;0.70;;;15.40;99.90;;;;;;4996323;28;20457;-86
2022/08/13 03:59:49;;;;;;;2.40;0.87;;;15.40;99.90;;;;;;4997780;28;20550;-85
2022/08/13 04:02:16;;;;;;;1.87;0.93;;;15.30;99.90;;;;;;4994335;28;20417;-86
2022/08/13 04:04:46;;;;;;;3.60;1.00;;;15.30;99.90;;;;;;4994851;28;21089;-87
2022/08/13 04:07:14;;;;;;;2.30;0.60;;;15.30;99.90;;;;;;4994872;28;20480;-88
2022/08/13 04:09:39;;;;;;;1.47;0.53;;;15.30;99.90;;;;;;4994396;28;20416;-86
2022/08/13 04:12:09;;;;;;;2.30;1.17;;;15.40;99.90;;;;;;4995428;28;20432;-87
2022/08/13 04:14:35;;;;;;;1.80;1.13;;;15.40;99.90;;;;;;4997398;28;20175;-86
2022/08/13 04:17:00;;;;;;;2.23;1.40;;;15.40;99.90;;;;;;4999517;28;20909;-90
2022/08/13 04:19:26;;;;;;;1.40;0.50;;;15.40;99.90;;;;;;4999239;28;20185;-88
2022/08/13 04:21:52;;;;;;;1.57;0.67;;;15.40;99.90;;;;;;4999081;28;20203;-86
2022/08/13 04:24:18;;;;;;;2.20;0.90;;;15.40;99.90;;;;;;5000451;28;20442;-85
2022/08/13 04:26:45;;;;;;;1.93;0.80;;;15.40;99.90;;;;;;4999758;28;20940;-91
2022/08/13 04:29:11;;;;;;;1.90;1.00;;;15.40;99.90;;;;;;4999799;28;20172;-85
2022/08/13 04:31:37;;;;;;;1.20;0.83;;;15.40;99.90;;;;;;4997836;28;20960;-87
2022/08/13 04:34:03;;;;;;;1.63;1.30;;;15.40;99.90;;;;;;4998853;28;20418;-86
2022/08/13 04:36:29;;;;;;;3.37;0.83;;;15.50;99.90;;;;;;5000517;28;20187;-86
2022/08/13 04:38:54;;;;;;;1.50;0.73;;;15.50;99.90;;;;;;4999731;28;20468;-87
2022/08/13 04:41:20;;;;;;;2.30;1.07;;;15.60;99.90;;;;;;5001533;28;20249;-86
2022/08/13 04:43:47;;;;;;;1.50;0.40;;;15.60;99.90;;;;;;5000328;28;20206;-86
2022/08/13 04:46:12;;;;;;;1.77;1.27;;;15.70;99.90;;;;;;5000949;28;20997;-85
2022/08/13 04:48:38;;;;;;;1.73;0.73;;;15.70;99.90;;;;;;4998558;28;20575;-86
2022/08/13 04:51:05;;;;;;;1.30;0.53;;;15.80;99.90;;;;;;4997043;28;20577;-86
2022/08/13 04:53:33;;;;;;;1.67;0.47;;;15.80;99.90;;;;;;4997922;28;20365;-86
2022/08/13 04:55:59;;;;;;;1.73;1.30;;;15.90;99.90;;;;;;4998216;28;20758;-86
2022/08/13 04:58:33;;;;;;;1.70;1.10;;;15.90;99.90;;;;;;4995346;28;20509;-86
2022/08/13 05:00:59;;;;;;;1.97;0.80;;;16.00;99.90;;;;;;4995580;28;20494;-91
2022/08/13 05:03:25;;;;;;;1.70;1.23;;;16.20;99.90;;;;;;4997111;28;20439;-92
2022/08/13 05:05:52;;;;;;;1.50;1.17;;;16.20;99.90;;;;;;4996120;28;20471;-88
2022/08/13 05:08:18;;;;;;;1.70;1.20;;;16.20;99.90;;;;;;4995177;28;20183;-89
2022/08/13 05:10:46;;;;;;;1.90;0.77;;;16.30;99.90;;;;;;4996046;28;20978;-88
2022/08/13 05:13:24;;;;;;;2.90;0.50;;;16.40;99.90;;;;;;4996148;28;20444;-87
2022/08/13 05:15:51;;;;;;;1.20;0.83;;;16.40;99.90;;;;;;4994644;28;20751;-87
2022/08/13 05:18:16;;;;;;;2.10;0.60;;;16.50;99.90;;;;;;4994424;28;20498;-88
2022/08/13 05:20:42;;;;;;;1.47;0.60;;;16.70;99.90;;;;;;4995188;28;20984;-87
2022/08/13 05:23:15;;;;;;;1.23;0.60;;;16.80;99.90;;;;;;4994698;28;20180;-87
2022/08/13 05:25:41;;;;;;;1.97;1.40;;;16.80;99.90;;;;;;4994904;28;20600;-88
2022/08/13 05:28:10;;;;;;;3.97;0.90;;;16.90;99.90;;;;;;4995059;28;20454;-87
2022/08/13 05:30:38;;;;;;;2.40;1.07;;;17.00;99.90;;;;;;4995132;28;20924;-87
2022/08/13 05:33:18;;;;;;;2.17;1.50;;;17.20;99.90;;;;;;4994946;28;20437;-88
2022/08/13 05:35:46;;;;;;;1.23;0.60;;;17.50;99.90;;;;;;4995006;28;20471;-88
2022/08/13 05:38:12;;;;;;;2.53;0.87;;;17.80;99.90;;;;;;4996113;28;20503;-87
2022/08/13 05:40:41;;;;;;;1.00;0.40;;;18.30;99.90;;;;;;4994579;28;20428;-87
2022/08/13 05:43:11;;;;;;;2.43;1.20;;;;;;;;;;4994768;28;20175;-89
2022/08/13 05:45:38;;;;;;;1.17;0.67;;;19.20;1.00;;;;;;4996073;28;20432;-88
2022/08/13 05:48:04;;;;;;;4.90;1.53;;;19.70;1.00;;;;;;4994684;28;20437;-88
2022/08/13 05:50:33;;;;;;;1.10;0.60;;;20.10;99.90;;;;;;4996173;28;20246;-88
2022/08/13 05:53:07;;;;;;;1.90;0.73;;;20.50;99.90;;;;;;4994495;28;20521;-88
2022/08/13 05:55:34;;;;;;;1.03;0.43;;;20.80;1.00;;;;;;4995385;28;20412;-88
2022/08/13 05:57:59;;;;;;;0.90;0.60;;;20.90;99.90;;;;;;4994425;28;20511;-87
2022/08/13 06:05:58;;;;;;;0.80;0.40;;;22.00;1.00;;;;;;4995570;28;20977;-88
2022/08/13 06:08:35;;;;;;;1.47;0.70;;;22.60;1.00;;;;;;4996097;28;20933;-90
2022/08/13 06:11:04;;;;;;;1.57;0.40;;;22.90;99.90;;;;;;4995901;28;20418;-88
2022/08/13 06:13:30;;;;;;;1.20;0.73;;;23.20;99.90;;;;;;4994466;28;20533;-88
2022/08/13 06:16:00;;;;;;;1.13;0.67;;;24.00;99.90;;;;;;4995693;28;20442;-93
2022/08/13 06:18:29;;;;;;;1.43;0.60;;;24.70;99.90;;;;;;4994883;28;20485;-91
2022/08/13 06:20:56;;;;;;;1.47;0.83;;;25.70;63.00;;;;;;4994460;28;20423;-90
2022/08/13 06:23:24;;;;;;;2.20;1.10;;;26.30;9.90;;;;;;4995707;28;20435;-88
2022/08/13 06:25:51;;;;;;;2.00;0.90;;;26.90;1.00;;;;;;4996163;28;20836;-93
2022/08/13 06:28:20;;;;;;;1.17;0.67;;;27.40;1.00;;;;;;4995657;28;20473;-90
2022/08/13 06:30:46;;;;;;;1.10;0.70;;;27.90;1.00;;;;;;4994268;28;20449;-89
2022/08/13 06:33:14;;;;;;;1.77;0.67;;;28.40;1.00;;;;;;4995260;28;20825;-88
2022/08/13 06:35:40;;;;;;;1.10;0.80;;;28.60;1.00;;;;;;4993939;28;20427;-90
2022/08/13 06:38:06;;;;;;;1.50;0.63;;;29.00;1.00;;;;;;4995284;28;20470;-90
2022/08/13 06:40:35;;;;;;;1.57;0.70;;;28.90;1.00;;;;;;4994976;28;20410;-89
2022/08/13 06:43:02;;;;;;;2.23;0.60;;;29.10;1.00;;;;;;4993815;28;20422;-89
2022/08/13 06:45:31;;;;;;;1.23;0.53;;;29.40;1.00;;;;;;4995103;28;20406;-91
2022/08/13 06:47:57;;;;;;;1.20;0.93;;;29.20;1.00;;;;;;4994361;28;20427;-92
2022/08/13 06:50:23;;;;;;;1.10;0.70;;;29.30;1.00;;;;;;4994238;28;20403;-92
2022/08/13 06:52:48;;;;;;;1.33;0.83;;;29.50;1.00;;;;;;4995334;28;20458;-91
2022/08/13 06:55:16;;;;;;;1.00;0.50;;;29.90;1.00;;;;;;4995300;28;20179;-91
2022/08/13 06:57:42;;;;;;;1.33;0.80;;;30.70;1.00;;;;;;4995341;28;20294;-93
2022/08/13 07:00:11;;;;;;;1.77;0.90;;;30.90;1.00;;;;;;4995316;28;20415;-91
2022/08/13 07:02:42;;;;;;;0.93;0.50;;;30.90;1.00;;;;;;4994954;28;20935;-91
2022/08/13 07:05:08;;;;;;;1.20;0.80;;;30.90;1.00;;;;;;4993672;28;20435;-91
2022/08/13 07:07:44;;;;;;;1.20;0.83;;;31.20;1.00;;;;;;4993508;28;20553;-89
2022/08/13 07:10:11;;;;;;;1.00;0.90;;;31.10;1.00;;;;;;4994629;28;20457;-91
2022/08/13 07:12:41;;;;;;;1.93;0.93;;;31.60;1.00;;;;;;4994873;28;20425;-92
2022/08/13 07:15:13;;;;;;;2.57;0.70;;;31.40;1.00;;;;;;4994924;28;20414;-92
2022/08/13 07:17:39;;;;;;;1.47;1.20;;;31.20;1.00;;;;;;4995007;28;20458;-90
2022/08/13 07:20:06;;;;;;;1.13;0.70;;;31.40;1.00;;;;;;4994848;28;20806;-90
2022/08/13 07:22:33;;;;;;;1.77;0.87;;;32.00;1.00;;;;;;4994895;28;20559;-92
2022/08/13 07:24:58;;;;;;;2.13;1.07;;;32.60;1.00;;;;;;4994599;28;20407;-92
2022/08/13 07:27:24;;;;;;;1.50;1.00;;;32.70;1.00;;;;;;4994951;28;20463;-92
2022/08/13 07:29:50;;;;;;;1.53;0.77;;;32.60;1.00;;;;;;4994739;28;20176;-91
2022/08/13 07:32:16;;;;;;;1.83;0.80;;;32.40;1.00;;;;;;4995026;28;20172;-91
2022/08/13 07:34:42;;;;;;;1.63;0.87;;;33.20;1.00;;;;;;4995003;28;20780;-93
2022/08/13 07:37:07;;;;;;;2.63;0.83;;;33.00;1.00;;;;;;4993738;28;20454;-91
2022/08/13 07:39:33;;;;;;;1.03;0.60;;;33.20;1.00;;;;;;4994633;28;20176;-90
2022/08/13 07:41:59;;;;;;;0.83;0.60;;;33.40;1.00;;;;;;4994346;28;20207;-88
2022/08/13 07:44:24;;;;;;;0.90;0.57;;;33.40;1.00;;;;;;4996654;28;20419;-94
2022/08/13 07:46:52;;;;;;;2.33;0.70;;;33.40;1.00;;;;;;4995679;28;20172;-94
2022/08/13 07:49:19;;;;;;;1.00;0.50;;;33.60;1.00;;;;;;4993390;28;20176;-94
2022/08/13 07:51:46;;;;;;;2.07;0.90;;;33.30;1.00;;;;;;4993768;28;20924;-91
2022/08/13 07:54:12;;;;;;;1.03;0.77;;;33.20;1.00;;;;;;4994945;28;20415;-95
2022/08/13 07:56:39;;;;;;;1.93;1.10;;;33.30;1.00;;;;;;5003241;28;20418;-90
2022/08/13 07:59:11;;;;;;;1.20;0.80;;;33.60;1.00;;;;;;4996255;28;20494;-91
2022/08/13 08:02:06;;;;;;;1.83;1.07;;;33.80;1.00;;;;;;4999355;28;20899;-95
2022/08/13 08:04:37;;;;;;;1.40;1.20;;;33.60;1.00;;;;;;4994356;28;20429;-95
2022/08/13 08:07:03;;;;;;;1.37;1.07;;;34.50;1.00;;;;;;4995063;28;20470;-94
2022/08/13 08:09:30;;;;;;;1.73;0.87;;;33.90;1.00;;;;;;4995814;28;20415;-88
2022/08/13 08:14:45;;;;;;;1.10;1.00;;;33.80;1.00;;;;;;4995568;28;20410;-94
2022/08/13 08:17:12;;;;;;;1.70;1.20;;;34.20;1.00;;;;;;4994749;28;20488;-92
2022/08/13 08:19:39;;;;;;;1.50;0.77;;;34.60;1.00;;;;;;4994941;28;20517;-94
2022/08/13 08:22:07;;;;;;;1.27;1.17;;;34.20;1.00;;;;;;4995112;28;20402;-94
2022/08/13 08:24:33;;;;;;;1.07;0.97;;;34.80;1.00;;;;;;4993807;28;20454;-92
2022/08/13 08:27:01;;;;;;;2.17;1.30;;;35.40;1.00;;;;;;4995315;28;20411;-94
2022/08/13 08:29:28;;;;;;;1.10;0.90;;;34.80;1.00;;;;;;4995229;28;20411;-92
2022/08/13 08:31:54;;;;;;;3.10;1.07;;;35.10;1.00;;;;;;4994857;28;20411;-94
2022/08/13 08:34:20;;;;;;;1.13;1.03;;;34.80;1.00;;;;;;4994737;28;20421;-94
2022/08/13 08:36:45;;;;;;;1.17;0.93;;;34.80;1.00;;;;;;4994794;28;20410;-92
2022/08/13 08:44:43;;;;;;;1.73;1.10;;;35.00;1.00;;;;;;4995179;28;20401;-94
2022/08/13 08:47:10;;;;;;;1.10;0.87;;;35.80;1.00;;;;;;4994859;28;20505;-93
2022/08/13 08:49:37;;;;;;;1.17;1.07;;;35.60;1.00;;;;;;4995074;28;20829;-95
2022/08/13 08:52:03;;;;;;;0.70;0.70;;;36.40;1.00;;;;;;4994798;28;20497;-92
2022/08/13 08:54:30;;;;;;;1.50;1.40;;;36.20;1.00;;;;;;4992862;28;20469;-94
2022/08/13 08:56:56;;;;;;;1.57;1.10;;;35.80;1.00;;;;;;4993464;28;20651;-94
2022/08/13 08:59:25;;;;;;;1.70;1.40;;;34.80;1.00;;;;;;4999373;28;20430;-95
2022/08/13 09:01:55;;;;;;;1.40;1.10;;;34.80;1.00;;;;;;5001134;28;20402;-95
2022/08/13 09:04:21;;;;;;;1.20;1.10;;;35.50;1.00;;;;;;4999628;28;20422;-92
2022/08/13 09:06:52;;;;;;;1.40;1.30;;;36.10;1.00;;;;;;4996892;28;20472;-86
2022/08/13 09:09:19;;;;;;;1.30;1.20;;;36.30;1.00;;;;;;4998243;28;20167;-91
2022/08/13 09:11:47;;;;;;;0.90;0.90;;;36.30;1.00;;;;;;4996400;28;20891;-92
2022/08/13 09:14:12;;;;;;;1.50;1.40;;;36.40;1.00;;;;;;4998190;28;20799;-93
2022/08/13 09:16:39;;;;;;;1.33;1.23;;;36.40;1.00;;;;;;4998049;28;20422;-90
2022/08/13 09:19:06;;;;;;;1.13;1.03;;;37.00;1.00;;;;;;4997269;28;20213;-87
2022/08/13 09:21:32;;;;;;;1.60;1.50;;;37.00;1.00;;;;;;4997057;28;20898;-89
2022/08/13 09:24:01;;;;;;;1.50;1.40;;;37.00;1.00;;;;;;4997249;28;20422;-90
2022/08/13 09:26:26;;;;;;;1.60;1.50;;;37.20;1.00;;;;;;4997853;28;20410;-94
2022/08/13 09:28:55;;;;;;;1.20;1.10;;;37.20;1.00;;;;;;4999748;28;20472;-94
2022/08/13 09:31:23;;;;;;;2.10;1.80;;;37.00;1.00;;;;;;5000743;28;20242;-92
2022/08/13 09:33:48;;;;;;;1.37;1.27;;;37.80;1.00;;;;;;4997901;28;20422;-89
2022/08/13 09:36:15;;;;;;;1.77;1.60;;;37.80;1.00;;;;;;4999131;28;20411;-95
2022/08/13 09:38:41;;;;;;;1.40;1.30;;;38.00;1.00;;;;;;4996845;28;20250;-91
2022/08/13 09:41:32;;;;;;;1.47;1.37;;;38.20;1.00;;;;;;4997387;28;20411;-88
2022/08/13 09:43:57;;;;;;;1.42;1.33;;;37.90;1.00;;;;;;4997307;28;20229;-91
2022/08/13 09:46:23;;;;;;;1.48;1.38;;;37.10;1.00;;;;;;4997518;28;20931;-89
2022/08/13 09:48:51;;;;;;;1.05;1.05;;;37.10;1.00;;;;;;4997180;28;20179;-91
2022/08/13 09:51:17;;;;;;;1.13;1.13;;;37.60;1.00;;;;;;4997043;28;20199;-88
2022/08/13 09:53:46;;;;;;;1.40;1.30;;;37.50;1.00;;;;;;4995450;28;20445;-87
2022/08/13 09:56:17;;;;;;;1.33;1.23;;;37.70;1.00;;;;;;4999672;28;20174;-91
2022/08/13 09:58:49;;;;;;;1.75;1.42;;;38.10;1.00;;;;;;4997054;28;20215;-89
2022/08/13 10:01:15;;;;;;;2.35;1.73;;;37.40;1.00;;;;;;4998184;28;20593;-93
2022/08/13 10:03:41;;;;;;;1.25;1.25;;;37.60;1.00;;;;;;4997302;28;20179;-93
2022/08/13 10:06:07;;;;;;;2.05;1.95;;;37.80;1.00;;;;;;4997011;28;20230;-93
2022/08/13 10:08:34;;;;;;;3.00;1.73;;;37.80;1.00;;;;;;4998289;28;20635;-94
2022/08/13 10:11:00;;;;;;;1.65;1.55;;;37.90;1.00;;;;;;4996909;28;20621;-90
2022/08/13 10:13:26;;;;;;;1.98;1.73;;;37.90;1.00;;;;;;5000869;28;20186;-90
2022/08/13 10:15:52;;;;;;;2.13;2.00;;;37.70;1.00;;;;;;4995501;28;20179;-90
2022/08/13 10:18:17;;;;;;;1.30;1.30;;;38.10;1.00;;;;;;4995174;28;20206;-89
2022/08/13 10:20:48;;;;;;;1.70;1.60;;;38.70;1.00;;;;;;4995138;28;20666;-89
2022/08/13 10:23:16;;;;;;;1.65;1.55;;;38.20;1.00;;;;;;4994693;28;20191;-87
2022/08/13 10:25:43;;;;;;;1.63;1.30;;;38.40;1.00;;;;;;4994904;28;20178;-88
2022/08/13 10:28:24;;;;;;;1.73;1.60;;;38.40;1.00;;;;;;4994771;28;20632;-87
2022/08/13 10:30:50;;;;;;;1.95;1.85;;;38.60;1.00;;;;;;4994844;28;20702;-87
2022/08/13 10:33:17;;;;;;;2.55;1.60;;;38.30;1.00;;;;;;4994655;28;20245;-87
2022/08/13 10:35:55;;;;;;;1.73;1.63;;;37.80;1.00;;;;;;4994677;28;20171;-88
2022/08/13 10:38:26;;;;;;;1.40;1.30;;;37.40;1.00;;;;;;4994348;28;20557;-87
2022/08/13 10:40:58;;;;;;;2.03;1.88;;;38.00;1.00;;;;;;4994626;28;20907;-87
2022/08/13 10:43:24;;;;;;;1.60;1.50;;;38.80;1.00;;;;;;4993243;28;20269;-86
2022/08/13 10:45:52;;;;;;;2.20;1.67;;;38.80;1.00;;;;;;4994559;28;20254;-87
2022/08/13 10:48:17;;;;;;;1.60;1.60;;;38.80;1.00;;;;;;4994461;28;20187;-87
2022/08/13 10:50:43;;;;;;;1.80;1.70;;;38.50;1.00;;;;;;4994477;28;20199;-87
2022/08/13 10:53:55;;;;;;;2.00;1.90;;;38.90;1.00;;;;;;4993791;28;20267;-87
2022/08/13 10:55:55;;;;;;;1.77;1.67;;;38.20;1.00;;;;;;4994236;28;20507;-87
2022/08/13 10:58:20;;;;;;;2.40;1.60;;;38.80;1.00;;;;;;4994111;28;20207;-86
2022/08/13 11:00:55;;;;;;;1.98;1.88;;;39.00;1.00;;;;;;4994093;28;20171;-88
2022/08/13 11:03:21;;;;;;;2.03;1.92;;;39.10;1.00;;;;;;4992941;28;20193;-87
2022/08/13 11:05:47;;;;;;;2.53;2.33;;;39.50;1.00;;;;;;4994113;28;20214;-86
2022/08/13 11:08:17;;;;;;;2.28;2.17;;;39.00;1.00;;;;;;4992526;28;20189;-89
2022/08/13 11:10:44;;;;;;;1.80;1.70;;;38.70;1.00;;;;;;4992391;28;20518;-89
2022/08/13 11:13:10;;;;;;;2.37;2.17;;;37.70;1.00;;;;;;4994021;28;20198;-88
2022/08/13 11:15:35;;;;;;;1.80;1.70;;;37.80;1.00;;;;;;4993778;28;20453;-87
2022/08/13 11:18:01;;;;;;;2.38;2.28;;;38.10;1.00;;;;;;4992496;28;20246;-90
2022/08/13 11:20:28;;;;;;;2.00;1.90;;;37.90;1.00;;;;;;4992931;28;20171;-88
2022/08/13 11:22:55;;;;;;;2.53;2.33;;;38.30;1.00;;;;;;4994723;28;20179;-88
2022/08/13 11:25:22;;;;;;;1.90;1.80;;;37.60;1.00;;;;;;4993661;28;21001;-88
2022/08/13 11:27:48;;;;;;;2.10;2.00;;;37.90;1.00;;;;;;4992656;28;20431;-89
2022/08/13 11:30:14;;;;;;;2.00;1.90;;;37.30;1.00;;;;;;4992850;28;20422;-89
2022/08/13 11:32:43;;;;;;;2.10;2.00;;;37.20;1.00;;;;;;4992292;28;20637;-87
2022/08/13 11:35:10;;;;;;;2.03;1.93;;;36.90;1.00;;;;;;4993624;28;20434;-88
2022/08/13 11:37:36;;;;;;;2.50;2.30;;;37.20;1.00;;;;;;4993230;28;20549;-89
2022/08/13 11:40:03;;;;;;;1.90;1.80;;;35.10;1.00;;;;;;4993853;28;20562;-88
2022/08/13 11:42:30;;;;;;;2.13;2.03;;;35.20;1.00;;;;;;4992218;28;20425;-88
2022/08/13 11:44:55;;;;;;;3.20;2.33;;;34.40;1.00;;;;;;4992427;28;20504;-89
2022/08/13 11:47:21;;;;;;;2.37;1.93;;;33.40;1.00;;;;;;4992244;28;20987;-88
2022/08/13 11:49:46;;;;;;;2.23;1.97;;;33.40;1.00;;;;;;4991763;28;20176;-86
2022/08/13 11:52:12;;;;;;;3.00;1.60;;;33.50;1.00;;;;;;4993488;28;20241;-88
2022/08/13 11:54:37;;;;;;;4.27;2.10;;;33.60;1.00;;;;;;4993121;28;20210;-87
2022/08/13 11:57:08;;;;;;;2.90;1.57;;;33.80;1.00;;;;;;4993417;28;20178;-88
2022/08/13 11:59:34;;;;;;;2.80;1.90;;;35.40;1.00;;;;;;4992519;28;20199;-87
2022/08/13 12:01:59;;;;;;;1.73;1.63;;;36.00;1.00;;;;;;4993168;28;20453;-88
2022/08/13 12:04:25;;;;;;;3.30;2.10;;;35.30;1.00;;;;;;4993177;28;20201;-87
2022/08/13 12:06:51;;;;;;;2.10;1.63;;;34.10;1.00;;;;;;4992638;28;20755;-88
2022/08/13 12:09:18;;;;;;;2.43;2.23;;;33.40;1.00;;;;;;4992829;28;20501;-88
2022/08/13 12:11:44;;;;;;;1.93;1.73;;;33.10;1.00;;;;;;4992358;28;20632;-88
2022/08/13 12:14:09;;;;;;;3.20;2.90;;;33.00;1.00;;;;;;4993559;28;20508;-88
2022/08/13 12:16:35;;;;;;;3.03;1.80;;;33.40;1.00;;;;;;4993606;28;20174;-89
2022/08/13 12:19:00;;;;;;;2.20;2.10;;;33.20;1.00;;;;;;4993383;28;20277;-89
2022/08/13 12:21:27;;;;;;;2.20;1.93;;;33.00;1.00;;;;;;4993590;28;20172;-87
2022/08/13 12:23:52;;;;;;;3.47;3.17;;;32.50;1.00;;;;;;4991889;28;20176;-89
2022/08/13 12:26:18;;;;;;;2.60;2.40;;;32.10;1.00;;;;;;4992240;28;20449;-87
2022/08/13 12:28:43;;;;;;;2.40;2.20;;;32.00;1.00;;;;;;4993559;28;20179;-89
2022/08/13 12:31:09;;;;;;;4.00;2.00;;;32.10;1.00;;;;;;4993513;28;20239;-86
2022/08/13 12:33:37;;;;;;;2.20;2.00;;;32.30;1.00;;;;;;4993222;28;20178;-87
2022/08/13 12:36:03;;;;;;;2.23;2.03;;;32.60;1.00;;;;;;4994105;28;20175;-89
2022/08/13 12:38:29;;;;;;;2.53;2.33;;;32.40;1.00;;;;;;4995414;28;20549;-88
2022/08/13 12:40:55;;;;;;;2.20;2.00;;;32.80;1.00;;;;;;4996027;28;20172;-88
2022/08/13 12:43:20;;;;;;;2.23;1.60;;;32.80;1.00;;;;;;4995782;28;20938;-88
2022/08/13 12:45:46;;;;;;;2.17;1.97;;;33.10;1.00;;;;;;4995794;28;20174;-88
2022/08/13 12:48:17;;;;;;;2.30;2.07;;;32.80;1.00;;;;;;4995972;28;20262;-85
2022/08/13 12:50:45;;;;;;;2.13;1.90;;;32.50;1.00;;;;;;4995659;28;20774;-87
2022/08/13 12:53:11;;;;;;;3.47;3.20;;;32.80;1.00;;;;;;4995263;28;20481;-86
2022/08/13 12:55:39;;;;;;;2.37;2.13;;;32.90;1.00;;;;;;4995642;28;20418;-86
2022/08/13 12:58:15;;;;;;;2.57;2.37;;;32.60;1.00;;;;;;4993003;28;20207;-86
2022/08/13 13:00:42;;;;;;;2.67;2.47;;;33.30;1.00;;;;;;4996013;28;20769;-87
2022/08/13 13:03:09;;;;;;;2.27;1.97;;;34.50;1.00;;;;;;4996189;28;20477;-87
2022/08/13 13:05:34;;;;;;;2.40;2.20;;;35.10;1.00;;;;;;4995656;28;20456;-87
2022/08/13 13:08:00;;;;;;;2.37;2.07;;;35.10;1.00;;;;;;4995146;28;20497;-85
2022/08/13 13:10:25;;;;;;;2.47;2.20;;;34.30;1.00;;;;;;4995461;28;20259;-87
2022/08/13 13:12:51;;;;;;;2.27;2.07;;;33.90;1.00;;;;;;4995240;28;20176;-86
2022/08/13 13:15:16;;;;;;;4.20;2.57;;;34.10;1.00;;;;;;4995656;28;20176;-86
2022/08/13 13:17:42;;;;;;;1.80;1.70;;;34.20;1.00;;;;;;4995814;28;20302;-87
2022/08/13 13:20:12;;;;;;;2.40;2.20;;;33.70;1.00;;;;;;4996543;28;20211;-87